createdAt,value
2022-09-17T00:01:14.374Z,7.78
2022-09-17T00:03:41.042Z,7.71
2022-09-17T00:06:10.523Z,7.68
2022-09-17T00:08:39.542Z,7.62
2022-09-17T00:11:21.291Z,7.42
2022-09-17T00:13:49.623Z,7.46
2022-09-17T00:16:27.705Z,7.49
2022-09-17T00:18:55.340Z,7.49
2022-09-17T00:21:22.772Z,7.39
2022-09-17T00:23:52.706Z,7.42
2022-09-17T00:26:19.272Z,7.67
2022-09-17T00:28:50.144Z,7.63
2022-09-17T00:31:16.793Z,7.65
2022-09-17T00:33:43.447Z,7.67
2022-09-17T00:36:10.054Z,7.72
2022-09-17T00:38:36.661Z,7.76
2022-09-17T00:41:04.253Z,7.73
2022-09-17T00:43:49.669Z,7.79
2022-09-17T00:46:22.590Z,7.88
2022-09-17T00:48:50.170Z,7.95
2022-09-17T00:51:23.005Z,7.92
2022-09-17T00:53:49.850Z,8.10
2022-09-17T00:56:32.668Z,7.95
2022-09-17T00:59:01.545Z,8.06
2022-09-17T01:01:28.936Z,7.93
2022-09-17T01:03:55.661Z,8.03
2022-09-17T01:06:25.029Z,8.00
2022-09-17T01:09:08.952Z,7.93
2022-09-17T01:11:51.598Z,7.95
2022-09-17T01:14:45.953Z,8.00
2022-09-17T01:17:28.642Z,7.90
2022-09-17T01:20:21.152Z,7.71
2022-09-17T01:23:14.847Z,7.72
2022-09-17T01:25:57.299Z,7.88
2022-09-17T01:28:45.468Z,7.91
2022-09-17T01:31:35.962Z,7.93
2022-09-17T01:34:14.776Z,7.88
2022-09-17T01:37:00.943Z,7.82
2022-09-17T01:39:48.737Z,7.92
2022-09-17T01:42:21.556Z,7.89
2022-09-17T01:44:52.385Z,7.88
2022-09-17T01:47:27.722Z,7.73
2022-09-17T01:50:02.617Z,7.87
2022-09-17T01:52:34.620Z,7.77
2022-09-17T01:55:08.663Z,7.75
2022-09-17T01:57:42.675Z,7.69
2022-09-17T02:00:13.870Z,7.61
2022-09-17T02:02:59.266Z,7.57
2022-09-17T02:05:36.405Z,7.66
2022-09-17T02:08:08.929Z,7.63
2022-09-17T02:10:40.187Z,7.45
2022-09-17T02:13:16.823Z,7.54
2022-09-17T02:15:50.017Z,7.18
2022-09-17T02:18:40.280Z,7.57
2022-09-17T02:21:53.438Z,7.58
2022-09-17T02:24:24.768Z,7.73
2022-09-17T02:27:09.589Z,7.88
2022-09-17T02:29:42.510Z,7.33
2022-09-17T02:32:12.793Z,7.50
2022-09-17T02:34:39.932Z,7.29
2022-09-17T02:37:07.610Z,6.83
2022-09-17T02:39:34.555Z,7.10
2022-09-17T02:42:20.645Z,6.91
2022-09-17T02:44:50.707Z,7.31
2022-09-17T02:47:34.581Z,7.30
2022-09-17T02:50:26.454Z,7.50
2022-09-17T02:52:59.089Z,7.54
2022-09-17T02:55:47.198Z,7.62
2022-09-17T02:58:16.512Z,7.50
2022-09-17T03:00:45.123Z,7.65
2022-09-17T03:03:21.893Z,7.52
2022-09-17T03:05:48.676Z,7.55
2022-09-17T03:08:18.499Z,7.52
2022-09-17T03:10:45.225Z,7.61
2022-09-17T03:13:12.057Z,7.72
2022-09-17T03:15:38.681Z,7.34
2022-09-17T03:18:05.372Z,7.49
2022-09-17T03:20:31.940Z,7.32
2022-09-17T03:22:58.567Z,7.31
2022-09-17T03:25:25.133Z,7.34
2022-09-17T03:27:52.436Z,7.48
2022-09-17T03:30:19.678Z,7.42
2022-09-17T03:32:46.910Z,7.28
2022-09-17T03:35:13.568Z,7.39
2022-09-17T03:37:40.180Z,7.49
2022-09-17T03:40:07.673Z,7.34
2022-09-17T03:42:34.432Z,7.43
2022-09-17T03:45:01.011Z,7.54
2022-09-17T03:47:27.617Z,7.31
2022-09-17T03:49:54.277Z,7.26
2022-09-17T03:52:21.100Z,7.19
2022-09-17T03:54:48.199Z,6.95
2022-09-17T03:57:15.319Z,7.00
2022-09-17T03:59:41.978Z,7.24
2022-09-17T04:02:08.672Z,7.35
2022-09-17T04:04:36.202Z,7.23
2022-09-17T04:07:02.808Z,7.13
2022-09-17T04:09:30.004Z,7.13
2022-09-17T04:11:56.785Z,7.00
2022-09-17T04:14:23.615Z,7.00
2022-09-17T04:16:50.246Z,7.12
2022-09-17T04:19:16.903Z,7.24
2022-09-17T04:21:43.502Z,7.34
2022-09-17T04:24:10.101Z,7.08
2022-09-17T04:26:36.747Z,6.95
2022-09-17T04:29:03.631Z,7.07
2022-09-17T04:31:30.295Z,7.15
2022-09-17T04:33:56.917Z,7.19
2022-09-17T04:36:23.538Z,7.21
2022-09-17T04:38:50.272Z,7.12
2022-09-17T04:41:17.010Z,7.14
2022-09-17T04:43:43.712Z,6.80
2022-09-17T04:46:10.364Z,6.76
2022-09-17T04:48:37.428Z,6.98
2022-09-17T04:51:04.216Z,6.97
2022-09-17T04:53:30.823Z,6.73
2022-09-17T04:55:57.461Z,7.00
2022-09-17T04:58:24.142Z,6.90
2022-09-17T05:00:50.773Z,6.97
2022-09-17T05:03:17.701Z,6.69
2022-09-17T05:05:44.331Z,6.80
2022-09-17T05:08:11.780Z,6.87
2022-09-17T05:10:38.467Z,6.84
2022-09-17T05:13:05.098Z,6.51
2022-09-17T05:15:31.700Z,6.87
2022-09-17T05:17:58.336Z,7.00
2022-09-17T05:20:25.002Z,6.87
2022-09-17T05:22:52.463Z,6.85
2022-09-17T05:25:24.992Z,6.52
2022-09-17T05:27:53.361Z,6.62
2022-09-17T05:30:20.968Z,6.59
2022-09-17T05:32:47.927Z,6.74
2022-09-17T05:35:14.933Z,7.12
2022-09-17T05:37:41.629Z,7.14
2022-09-17T05:40:09.199Z,7.18
2022-09-17T05:42:36.130Z,7.12
2022-09-17T05:45:02.916Z,7.36
2022-09-17T05:47:29.554Z,7.20
2022-09-17T05:49:56.143Z,7.37
2022-09-17T05:52:22.937Z,7.55
2022-09-17T05:54:49.585Z,7.33
2022-09-17T05:57:16.170Z,7.58
2022-09-17T05:59:42.777Z,8.22
2022-09-17T06:02:13.815Z,7.48
2022-09-17T06:04:40.655Z,7.98
2022-09-17T06:07:09.249Z,7.75
2022-09-17T06:09:37.652Z,8.05
2022-09-17T06:12:05.361Z,8.02
2022-09-17T06:14:32.161Z,8.02
2022-09-17T06:16:58.904Z,8.08
2022-09-17T06:19:25.475Z,7.68
2022-09-17T06:21:52.140Z,7.89
2022-09-17T06:24:18.771Z,8.08
2022-09-17T06:26:45.386Z,8.11
2022-09-17T06:29:15.044Z,7.89
2022-09-17T06:31:44.818Z,7.80
2022-09-17T06:34:12.212Z,7.39
2022-09-17T06:36:38.924Z,7.80
2022-09-17T06:39:06.034Z,8.02
2022-09-17T06:41:33.198Z,7.64
2022-09-17T06:44:00.014Z,7.48
2022-09-17T06:46:27.222Z,7.63
2022-09-17T06:48:54.106Z,7.85
2022-09-17T06:51:22.418Z,7.27
2022-09-17T06:53:49.193Z,7.29
2022-09-17T06:56:15.812Z,7.34
2022-09-17T06:58:43.739Z,7.44
2022-09-17T07:01:11.905Z,7.45
2022-09-17T07:03:39.207Z,7.31
2022-09-17T07:06:12.480Z,7.88
2022-09-17T07:08:39.549Z,8.16
2022-09-17T07:11:06.752Z,8.36
2022-09-17T07:13:34.513Z,8.15
2022-09-17T07:16:03.280Z,8.48
2022-09-17T07:18:30.284Z,8.12
2022-09-17T07:20:59.266Z,8.60
2022-09-17T07:23:28.304Z,9.38
2022-09-17T07:25:56.664Z,8.95
2022-09-17T07:28:24.086Z,9.35
2022-09-17T07:30:52.101Z,8.80
2022-09-17T07:33:23.300Z,8.52
2022-09-17T07:36:01.645Z,8.74
2022-09-17T07:38:29.760Z,9.25
2022-09-17T07:41:04.770Z,9.69
2022-09-17T07:43:34.076Z,10.06
2022-09-17T07:46:03.004Z,10.71
2022-09-17T07:48:30.366Z,9.84
2022-09-17T07:50:57.851Z,9.76
2022-09-17T07:53:24.939Z,9.20
2022-09-17T07:55:56.213Z,9.39
2022-09-17T07:58:24.044Z,9.67
2022-09-17T08:00:50.980Z,10.34
2022-09-17T08:03:17.643Z,10.69
2022-09-17T08:05:44.321Z,10.47
2022-09-17T08:08:11.026Z,11.09
2022-09-17T08:10:37.734Z,11.03
2022-09-17T08:13:04.378Z,10.25
2022-09-17T08:15:31.036Z,10.18
2022-09-17T08:17:57.665Z,10.41
2022-09-17T08:20:26.161Z,10.75
2022-09-17T08:23:01.879Z,11.52
2022-09-17T08:25:28.623Z,12.99
2022-09-17T08:27:56.552Z,14.56
2022-09-17T08:30:23.868Z,16.62
2022-09-17T08:32:50.539Z,16.43
2022-09-17T08:35:17.865Z,18.21
2022-09-17T08:37:44.573Z,19.25
2022-09-17T08:40:20.916Z,18.54
2022-09-17T08:43:02.392Z,18.29
2022-09-17T08:45:30.048Z,20.55
2022-09-17T08:48:05.119Z,19.98
2022-09-17T08:50:34.241Z,17.85
2022-09-17T08:53:07.612Z,17.92
2022-09-17T08:55:45.799Z,16.91
2022-09-17T08:58:36.389Z,13.57
2022-09-17T09:01:06.161Z,14.11
2022-09-17T09:03:50.217Z,13.49
2022-09-17T09:06:19.764Z,14.43
2022-09-17T09:08:53.681Z,15.85
2022-09-17T09:11:27.370Z,17.11
2022-09-17T09:14:01.311Z,16.14
2022-09-17T09:16:33.113Z,14.01
2022-09-17T09:19:13.407Z,13.74
2022-09-17T09:21:47.307Z,14.22
2022-09-17T09:24:25.224Z,13.52
2022-09-17T09:27:01.879Z,12.53
2022-09-17T09:29:40.335Z,13.30
2022-09-17T09:32:44.103Z,12.29
2022-09-17T09:35:20.425Z,12.62
2022-09-17T09:37:56.452Z,11.88
2022-09-17T09:40:36.126Z,11.47
2022-09-17T09:43:14.798Z,11.41
2022-09-17T09:45:56.714Z,11.92
2022-09-17T09:48:26.306Z,11.96
2022-09-17T09:51:07.538Z,11.62
2022-09-17T09:53:34.094Z,11.95
2022-09-17T09:56:51.369Z,11.48
2022-09-17T09:59:19.218Z,10.67
2022-09-17T10:01:46.324Z,11.03
2022-09-17T10:04:20.582Z,10.89
2022-09-17T10:07:09.152Z,10.91
2022-09-17T10:09:38.869Z,10.95
2022-09-17T10:12:08.307Z,11.34
2022-09-17T10:14:36.653Z,11.46
2022-09-17T10:17:22.960Z,12.16
2022-09-17T10:20:16.486Z,12.97
2022-09-17T10:22:46.991Z,12.27
2022-09-17T10:25:35.559Z,11.79
2022-09-17T10:28:06.271Z,12.57
2022-09-17T10:30:33.051Z,13.59
2022-09-17T10:33:22.708Z,14.08
2022-09-17T10:36:15.732Z,15.54
2022-09-17T10:38:46.330Z,16.78
2022-09-17T10:41:16.446Z,17.42
2022-09-17T10:43:43.206Z,17.22
2022-09-17T10:46:27.373Z,17.60
2022-09-17T10:49:08.282Z,18.47
2022-09-17T10:51:34.947Z,15.07
2022-09-17T10:54:15.040Z,17.74
2022-09-17T10:56:49.605Z,17.49
2022-09-17T10:59:22.394Z,15.73
2022-09-17T11:02:15.788Z,15.88
2022-09-17T11:05:07.477Z,17.41
2022-09-17T11:07:55.783Z,17.02
2022-09-17T11:10:33.566Z,15.05
2022-09-17T11:13:32.262Z,17.01
2022-09-17T11:16:17.365Z,15.43
2022-09-17T11:19:08.715Z,16.03
2022-09-17T11:22:02.265Z,15.24
2022-09-17T11:24:48.686Z,16.21
2022-09-17T11:27:37.613Z,16.85
2022-09-17T11:30:14.335Z,14.27
2022-09-17T11:32:54.599Z,15.85
2022-09-17T11:35:31.085Z,15.30
2022-09-17T11:38:01.798Z,14.54
2022-09-17T11:40:46.322Z,14.24
2022-09-17T11:43:19.626Z,14.07
2022-09-17T11:45:57.813Z,13.89
2022-09-17T11:48:33.468Z,13.51
2022-09-17T11:51:35.563Z,13.55
2022-09-17T11:54:05.221Z,13.00
2022-09-17T11:56:43.081Z,13.37
2022-09-17T11:59:15.820Z,12.64
2022-09-17T12:02:14.607Z,13.00
2022-09-17T12:04:47.598Z,12.95
2022-09-17T12:07:27.526Z,13.02
2022-09-17T12:10:00.434Z,12.08
2022-09-17T12:15:21.519Z,11.93
2022-09-17T12:18:20.268Z,12.07
2022-09-17T12:20:45.989Z,12.84
2022-09-17T12:23:17.992Z,12.86
2022-09-17T12:25:56.900Z,13.49
2022-09-17T12:28:33.827Z,13.64
2022-09-17T12:31:25.148Z,13.74
2022-09-17T12:34:06.671Z,13.31
2022-09-17T12:37:05.013Z,13.64
2022-09-17T12:39:46.073Z,13.51
2022-09-17T12:42:35.569Z,13.84
2022-09-17T12:45:20.631Z,13.79
2022-09-17T12:48:04.216Z,14.57
2022-09-17T12:50:52.467Z,14.19
2022-09-17T12:53:48.085Z,13.58
2022-09-17T12:57:00.842Z,12.50
2022-09-17T12:59:31.505Z,13.47
2022-09-17T13:02:20.827Z,13.78
2022-09-17T13:05:01.812Z,14.17
2022-09-17T13:07:46.012Z,13.11
2022-09-17T13:10:18.670Z,13.09
2022-09-17T13:12:53.685Z,12.26
2022-09-17T13:15:39.002Z,12.97
2022-09-17T13:18:26.982Z,13.14
2022-09-17T13:21:13.319Z,13.11
2022-09-17T13:23:48.042Z,12.82
2022-09-17T13:26:19.071Z,13.45
2022-09-17T13:28:50.798Z,12.85
2022-09-17T13:31:23.317Z,12.88
2022-09-17T13:33:58.630Z,13.78
2022-09-17T13:36:50.202Z,14.10
2022-09-17T13:39:42.479Z,13.51
2022-09-17T13:42:14.483Z,14.04
2022-09-17T13:45:17.821Z,13.17
2022-09-17T13:48:04.082Z,13.41
2022-09-17T13:50:41.873Z,13.81
2022-09-17T13:53:18.713Z,13.03
2022-09-17T13:55:57.148Z,14.11
2022-09-17T13:58:28.328Z,14.40
2022-09-17T14:01:05.170Z,13.54
2022-09-17T14:03:34.096Z,14.17
2022-09-17T14:06:14.717Z,14.33
2022-09-17T14:08:44.401Z,13.59
2022-09-17T14:11:34.456Z,14.03
2022-09-17T14:14:10.547Z,13.91
2022-09-17T14:16:42.915Z,13.12
2022-09-17T14:19:15.695Z,13.53
2022-09-17T14:22:08.536Z,13.73
2022-09-17T14:24:44.348Z,12.81
2022-09-17T14:27:19.903Z,13.66
2022-09-17T14:30:01.364Z,13.48
2022-09-17T14:32:43.994Z,13.29
2022-09-17T14:35:24.593Z,13.02
2022-09-17T14:37:56.851Z,12.89
2022-09-17T14:40:24.913Z,12.74
2022-09-17T14:42:57.466Z,12.26
2022-09-17T14:45:31.311Z,12.72
2022-09-17T14:48:17.502Z,12.07
2022-09-17T14:50:44.257Z,12.35
2022-09-17T14:53:19.388Z,12.02
2022-09-17T14:55:49.729Z,11.50
2022-09-17T14:58:29.885Z,11.61
2022-09-17T15:00:56.913Z,10.73
2022-09-17T15:03:24.675Z,10.12
2022-09-17T15:05:51.660Z,9.82
2022-09-17T15:08:23.766Z,9.73
2022-09-17T15:10:54.659Z,9.63
2022-09-17T15:13:32.594Z,9.63
2022-09-17T15:16:13.627Z,9.66
2022-09-17T15:18:44.254Z,9.73
2022-09-17T15:21:24.381Z,9.57
2022-09-17T15:23:54.877Z,9.08
2022-09-17T15:26:27.577Z,9.26
2022-09-17T15:28:56.784Z,9.73
2022-09-17T15:31:23.792Z,9.98
2022-09-17T15:33:50.873Z,9.33
2022-09-17T15:36:27.350Z,9.54
2022-09-17T15:38:54.593Z,9.49
2022-09-17T15:41:34.723Z,9.46
2022-09-17T15:44:28.935Z,10.45
2022-09-17T15:47:35.244Z,10.31
2022-09-17T15:50:26.506Z,9.18
2022-09-17T15:53:13.920Z,9.92
2022-09-17T15:55:45.870Z,10.36
2022-09-17T15:58:22.150Z,10.67
2022-09-17T16:01:19.762Z,11.11
2022-09-17T16:03:46.518Z,11.16
2022-09-17T16:06:19.146Z,11.39
2022-09-17T16:08:50.640Z,11.48
2022-09-17T16:11:18.680Z,11.52
2022-09-17T16:13:56.354Z,11.34
2022-09-17T16:16:33.518Z,11.52
2022-09-17T16:19:00.198Z,11.03
2022-09-17T16:21:26.937Z,11.16
2022-09-17T16:23:54.077Z,11.39
2022-09-17T16:26:25.767Z,11.25
2022-09-17T16:28:54.454Z,11.20
2022-09-17T16:31:21.449Z,10.61
2022-09-17T16:33:48.186Z,10.90
2022-09-17T16:36:18.369Z,10.89
2022-09-17T16:38:45.045Z,10.65
2022-09-17T16:41:11.936Z,10.66
2022-09-17T16:43:40.152Z,10.78
2022-09-17T16:46:09.354Z,10.52
2022-09-17T16:48:36.732Z,10.29
2022-09-17T16:51:10.850Z,10.55
2022-09-17T16:53:38.171Z,10.52
2022-09-17T16:56:12.035Z,10.17
2022-09-17T16:58:39.036Z,10.29
2022-09-17T17:01:15.892Z,10.32
2022-09-17T17:03:42.933Z,10.24
2022-09-17T17:06:17.425Z,9.91
2022-09-17T17:08:44.144Z,9.74
2022-09-17T17:11:10.812Z,9.51
2022-09-17T17:13:37.456Z,10.03
2022-09-17T17:16:11.100Z,9.48
2022-09-17T17:18:37.949Z,9.64
2022-09-17T17:21:06.470Z,9.74
2022-09-17T17:23:34.436Z,9.85
2022-09-17T17:26:01.607Z,9.87
2022-09-17T17:28:31.811Z,9.69
2022-09-17T17:30:58.619Z,9.70
2022-09-17T17:33:25.337Z,9.73
2022-09-17T17:35:51.941Z,9.64
2022-09-17T17:38:18.946Z,9.57
2022-09-17T17:40:45.907Z,9.59
2022-09-17T17:43:12.704Z,9.52
2022-09-17T17:45:40.118Z,9.37
2022-09-17T17:48:06.840Z,9.34
2022-09-17T17:50:33.784Z,9.32
2022-09-17T17:53:00.433Z,9.43
2022-09-17T17:55:27.010Z,9.33
2022-09-17T17:58:01.205Z,9.42
2022-09-17T18:00:28.612Z,9.43
2022-09-17T18:02:55.255Z,9.19
2022-09-17T18:05:22.061Z,9.24
2022-09-17T18:07:49.582Z,9.18
2022-09-17T18:10:16.985Z,9.21
2022-09-17T18:12:50.463Z,9.18
2022-09-17T18:15:17.382Z,9.16
2022-09-17T18:17:44.034Z,8.74
2022-09-17T18:20:10.978Z,8.88
2022-09-17T18:22:37.670Z,8.97
2022-09-17T18:25:04.561Z,8.89
2022-09-17T18:27:31.193Z,8.79
2022-09-17T18:29:57.962Z,8.81
2022-09-17T18:32:24.649Z,8.97
2022-09-17T18:34:51.725Z,9.07
2022-09-17T18:37:18.569Z,9.14
2022-09-17T18:39:57.888Z,8.87
2022-09-17T18:42:24.887Z,8.82
2022-09-17T18:44:51.527Z,8.86
2022-09-17T18:47:18.201Z,8.87
2022-09-17T18:49:44.877Z,8.85
2022-09-17T18:52:11.463Z,8.80
2022-09-17T18:54:38.053Z,8.99
2022-09-17T18:57:04.975Z,8.88
2022-09-17T18:59:31.795Z,8.59
2022-09-17T19:01:58.487Z,8.87
2022-09-17T19:04:25.735Z,8.90
2022-09-17T19:06:52.366Z,8.71
2022-09-17T19:09:18.969Z,8.27
2022-09-17T19:11:45.714Z,8.55
2022-09-17T19:14:12.296Z,8.71
2022-09-17T19:16:38.928Z,8.71
2022-09-17T19:19:05.610Z,8.60
2022-09-17T19:21:32.233Z,8.60
2022-09-17T19:23:58.792Z,8.40
2022-09-17T19:26:27.258Z,8.59
2022-09-17T19:29:00.350Z,8.62
2022-09-17T19:31:27.547Z,8.45
2022-09-17T19:33:54.856Z,8.58
2022-09-17T19:36:21.801Z,8.54
2022-09-17T19:38:48.606Z,8.74
2022-09-17T19:41:18.289Z,8.67
2022-09-17T19:43:45.233Z,8.69
2022-09-17T19:46:18.173Z,8.48
2022-09-17T19:48:50.271Z,8.61
2022-09-17T19:51:17.657Z,8.60
2022-09-17T19:53:45.549Z,8.51
2022-09-17T19:56:14.659Z,8.57
2022-09-17T19:58:41.999Z,8.53
2022-09-17T20:01:09.253Z,8.66
2022-09-17T20:03:37.892Z,8.36
2022-09-17T20:06:07.424Z,8.41
2022-09-17T20:08:39.307Z,8.59
2022-09-17T20:11:10.540Z,8.50
2022-09-17T20:13:37.488Z,8.53
2022-09-17T20:16:13.065Z,8.43
2022-09-17T20:18:40.302Z,8.30
2022-09-17T20:21:15.691Z,8.14
2022-09-17T20:23:42.818Z,8.20
2022-09-17T20:26:10.859Z,8.41
2022-09-17T20:28:37.535Z,8.48
2022-09-17T20:31:05.505Z,8.37
2022-09-17T20:33:32.918Z,8.44
2022-09-17T20:36:01.278Z,8.51
2022-09-17T20:41:15.528Z,8.68
2022-09-17T20:43:53.154Z,8.38
2022-09-17T20:46:27.613Z,8.10
2022-09-17T20:48:57.341Z,8.20
2022-09-17T20:51:29.069Z,8.20
2022-09-17T20:53:57.322Z,8.34
2022-09-17T20:56:31.306Z,8.40
2022-09-17T20:59:07.670Z,8.47
2022-09-17T21:01:36.925Z,8.41
2022-09-17T21:04:06.290Z,8.38
2022-09-17T21:06:37.405Z,8.47
2022-09-17T21:09:06.063Z,8.44
2022-09-17T21:11:34.073Z,8.44
2022-09-17T21:14:01.305Z,8.38
2022-09-17T21:16:28.357Z,8.53
2022-09-17T21:19:01.392Z,8.16
2022-09-17T21:21:28.820Z,8.12
2022-09-17T21:24:01.044Z,8.25
2022-09-17T21:26:28.161Z,8.36
2022-09-17T21:28:56.397Z,8.43
2022-09-17T21:31:32.351Z,8.29
2022-09-17T21:34:05.645Z,8.10
2022-09-17T21:36:36.232Z,8.30
2022-09-17T21:39:06.404Z,8.03
2022-09-17T21:41:33.053Z,8.32
2022-09-17T21:44:00.201Z,8.31
2022-09-17T21:46:33.849Z,8.25
2022-09-17T21:49:02.359Z,8.33
2022-09-17T21:51:32.249Z,8.18
2022-09-17T21:54:01.130Z,8.37
2022-09-17T21:56:29.786Z,8.48
2022-09-17T21:59:05.134Z,8.49
2022-09-17T22:01:45.778Z,8.56
2022-09-17T22:04:20.557Z,8.33
2022-09-17T22:06:48.854Z,8.42
2022-09-17T22:09:22.284Z,8.20
2022-09-17T22:11:49.212Z,8.35
2022-09-17T22:14:19.579Z,8.47
2022-09-17T22:17:11.683Z,8.15
2022-09-17T22:19:38.296Z,8.09
2022-09-17T22:22:04.933Z,7.85
2022-09-17T22:24:31.654Z,7.98
2022-09-17T22:26:58.620Z,8.07
2022-09-17T22:29:26.943Z,7.95
2022-09-17T22:31:53.579Z,8.15
2022-09-17T22:34:22.425Z,8.17
2022-09-17T22:36:49.574Z,8.04
2022-09-17T22:39:18.929Z,8.14
2022-09-17T22:41:46.026Z,8.13
2022-09-17T22:44:16.593Z,8.20
2022-09-17T22:46:46.386Z,8.28
2022-09-17T22:49:13.613Z,8.13
2022-09-17T22:51:41.064Z,8.04
2022-09-17T22:54:11.310Z,8.11
2022-09-17T22:56:38.035Z,8.17
2022-09-17T22:59:04.792Z,8.08
2022-09-17T23:01:33.993Z,8.00
2022-09-17T23:04:01.365Z,8.11
2022-09-17T23:06:34.400Z,8.07
2022-09-17T23:09:01.432Z,8.12
2022-09-17T23:11:30.981Z,8.14
2022-09-17T23:14:03.799Z,8.20
2022-09-17T23:16:39.990Z,8.04
2022-09-17T23:19:06.985Z,8.12
2022-09-17T23:21:33.988Z,7.95
2022-09-17T23:24:00.834Z,7.98
2022-09-17T23:26:28.806Z,7.98
2022-09-17T23:28:56.831Z,8.02
2022-09-17T23:31:27.858Z,7.97
2022-09-17T23:33:56.036Z,8.03
2022-09-17T23:36:26.121Z,8.01
2022-09-17T23:38:54.698Z,8.08
2022-09-17T23:41:26.779Z,8.02
2022-09-17T23:43:58.505Z,7.76
2022-09-17T23:46:26.977Z,7.71
2022-09-17T23:48:54.002Z,7.91
2022-09-17T23:51:21.815Z,7.93
2022-09-17T23:53:48.790Z,8.07
2022-09-17T23:56:21.310Z,8.08
2022-09-17T23:58:49.172Z,8.08
